createdAt,value
2023-04-17T00:00:11.749Z,50.90
2023-04-17T00:03:01.902Z,41.53
2023-04-17T00:05:49.223Z,50.23
2023-04-17T00:08:36.678Z,38.60
2023-04-17T00:11:24.851Z,48.20
2023-04-17T00:14:12.019Z,41.97
2023-04-17T00:16:59.186Z,61.30
2023-04-17T00:19:47.559Z,47.40
2023-04-17T00:22:35.431Z,51.43
2023-04-17T00:25:22.728Z,51.87
2023-04-17T00:28:09.831Z,50.43
2023-04-17T00:30:59.323Z,47.70
2023-04-17T00:33:46.664Z,49.67
2023-04-17T00:36:34.311Z,48.90
2023-04-17T00:39:21.678Z,43.40
2023-04-17T00:42:08.884Z,46.67
2023-04-17T00:44:56.033Z,52.30
2023-04-17T00:47:43.768Z,59.23
2023-04-17T00:50:34.445Z,52.83
2023-04-17T00:53:22.218Z,55.50
2023-04-17T00:56:09.940Z,50.43
2023-04-17T00:58:59.050Z,47.10
2023-04-17T01:01:46.331Z,48.03
2023-04-17T01:04:33.531Z,49.67
2023-04-17T01:07:21.058Z,53.73
2023-04-17T01:10:09.753Z,50.80
2023-04-17T01:13:04.135Z,47.93
2023-04-17T01:15:51.436Z,50.03
2023-04-17T01:18:38.777Z,52.97
2023-04-17T01:21:25.962Z,56.30
2023-04-17T01:24:13.263Z,48.60
2023-04-17T01:27:01.055Z,52.93
2023-04-17T01:29:48.313Z,49.87
2023-04-17T01:32:35.695Z,57.17
2023-04-17T01:35:23.370Z,47.80
2023-04-17T01:38:10.594Z,58.33
2023-04-17T01:40:58.005Z,56.50
2023-04-17T01:43:46.751Z,53.57
2023-04-17T01:46:34.168Z,56.97
2023-04-17T01:49:21.581Z,48.93
2023-04-17T01:52:08.818Z,57.77
2023-04-17T01:54:56.009Z,56.30
2023-04-17T01:57:43.867Z,50.70
2023-04-17T02:00:31.074Z,58.53
2023-04-17T02:03:19.248Z,54.67
2023-04-17T02:06:07.716Z,66.27
2023-04-17T02:08:54.897Z,47.80
2023-04-17T02:11:42.216Z,62.40
2023-04-17T02:14:31.263Z,58.90
2023-04-17T02:17:18.442Z,52.70
2023-04-17T02:20:07.447Z,59.00
2023-04-17T02:22:55.417Z,53.07
2023-04-17T02:25:42.644Z,66.10
2023-04-17T02:28:29.786Z,61.43
2023-04-17T02:31:17.006Z,60.10
2023-04-17T02:34:04.316Z,58.07
2023-04-17T02:36:52.762Z,54.20
2023-04-17T02:39:39.895Z,61.23
2023-04-17T02:42:27.064Z,60.57
2023-04-17T02:45:14.277Z,64.73
2023-04-17T02:48:02.241Z,61.57
2023-04-17T02:50:49.519Z,63.50
2023-04-17T02:53:36.821Z,57.73
2023-04-17T02:56:23.997Z,63.10
2023-04-17T02:59:11.390Z,55.10
2023-04-17T03:01:59.881Z,67.40
2023-04-17T03:04:49.164Z,62.63
2023-04-17T03:07:36.416Z,57.83
2023-04-17T03:10:23.360Z,62.70
2023-04-17T03:13:10.655Z,62.33
2023-04-17T03:15:58.497Z,74.50
2023-04-17T03:18:45.545Z,56.43
2023-04-17T03:21:32.832Z,54.70
2023-04-17T03:24:20.558Z,59.37
2023-04-17T03:27:07.673Z,59.73
2023-04-17T03:29:56.281Z,56.67
2023-04-17T03:32:43.308Z,61.37
2023-04-17T03:35:30.480Z,54.87
2023-04-17T03:38:18.068Z,55.30
2023-04-17T03:41:05.345Z,58.50
2023-04-17T03:43:52.416Z,58.93
2023-04-17T03:46:39.431Z,57.53
2023-04-17T03:49:26.436Z,55.87
2023-04-17T03:52:13.488Z,57.87
2023-04-17T03:55:00.514Z,68.50
2023-04-17T03:57:49.814Z,63.07
2023-04-17T04:00:37.466Z,56.63
2023-04-17T04:03:28.414Z,54.23
2023-04-17T04:08:45.563Z,60.13
2023-04-17T04:11:33.334Z,61.20
2023-04-17T04:14:20.555Z,58.43
2023-04-17T04:17:07.710Z,52.63
2023-04-17T04:19:54.847Z,63.40
2023-04-17T04:22:44.732Z,68.57
2023-04-17T04:25:32.451Z,82.63
2023-04-17T04:28:19.645Z,65.40
2023-04-17T04:31:07.449Z,60.93
2023-04-17T04:33:55.415Z,65.27
2023-04-17T04:37:01.062Z,67.43
2023-04-17T04:39:53.958Z,62.30
2023-04-17T04:42:49.848Z,73.03
2023-04-17T04:45:37.279Z,64.53
2023-04-17T04:48:24.607Z,60.60
2023-04-17T04:51:12.207Z,75.17
2023-04-17T04:53:59.542Z,65.67
2023-04-17T04:56:46.894Z,63.03
2023-04-17T04:59:34.250Z,74.10
2023-04-17T05:02:21.578Z,59.53
2023-04-17T05:05:12.542Z,82.70
2023-04-17T05:07:59.744Z,64.40
2023-04-17T05:10:46.968Z,64.73
2023-04-17T05:13:34.524Z,63.00
2023-04-17T05:16:21.796Z,66.03
2023-04-17T05:19:09.082Z,64.93
2023-04-17T05:21:56.373Z,71.03
2023-04-17T05:24:43.643Z,66.90
2023-04-17T05:27:31.252Z,74.97
2023-04-17T05:30:18.491Z,66.90
2023-04-17T05:33:06.089Z,69.93
2023-04-17T05:35:55.992Z,65.40
2023-04-17T05:38:45.949Z,60.63
2023-04-17T05:41:33.429Z,67.53
2023-04-17T05:44:21.990Z,69.03
2023-04-17T05:47:09.500Z,64.43
2023-04-17T05:49:58.715Z,64.37
2023-04-17T05:52:48.324Z,61.60
2023-04-17T05:55:35.462Z,66.20
2023-04-17T05:58:24.525Z,63.37
2023-04-17T06:01:13.310Z,71.63
2023-04-17T06:04:02.153Z,58.40
2023-04-17T06:06:49.647Z,67.17
2023-04-17T06:09:37.379Z,72.17
2023-04-17T06:12:24.603Z,67.07
2023-04-17T06:15:12.374Z,68.57
2023-04-17T06:17:59.637Z,68.13
2023-04-17T06:20:47.333Z,63.03
2023-04-17T06:23:37.319Z,65.43
2023-04-17T06:26:24.451Z,67.20
2023-04-17T06:29:12.879Z,75.73
2023-04-17T06:32:00.369Z,61.60
2023-04-17T06:37:39.673Z,61.57
2023-04-17T06:40:26.920Z,60.57
2023-04-17T06:43:16.775Z,67.17
2023-04-17T06:46:03.985Z,60.40
2023-04-17T06:48:52.326Z,57.57
2023-04-17T06:51:39.535Z,63.27
2023-04-17T06:57:00.963Z,65.80
2023-04-17T06:59:27.900Z,60.73
2023-04-17T07:01:54.999Z,55.50
2023-04-17T07:04:22.021Z,58.43
2023-04-17T07:06:48.952Z,63.47
2023-04-17T07:09:16.463Z,55.90
2023-04-17T07:11:43.265Z,56.93
2023-04-17T07:14:12.721Z,53.33
2023-04-17T07:16:39.856Z,65.63
2023-04-17T07:19:14.064Z,57.97
2023-04-17T07:21:41.656Z,64.60
2023-04-17T07:24:09.173Z,56.37
2023-04-17T07:26:37.455Z,60.63
2023-04-17T07:29:04.456Z,57.30
2023-04-17T07:31:31.542Z,55.63
2023-04-17T07:33:58.381Z,59.23
2023-04-17T07:36:25.070Z,52.80
2023-04-17T07:38:51.935Z,52.93
2023-04-17T07:41:18.666Z,58.60
2023-04-17T07:43:45.307Z,51.17
2023-04-17T07:46:12.242Z,54.27
2023-04-17T07:48:39.804Z,62.77
2023-04-17T07:51:07.702Z,53.90
2023-04-17T07:53:36.278Z,58.30
2023-04-17T07:56:03.204Z,52.10
2023-04-17T07:58:29.894Z,58.87
2023-04-17T08:00:57.327Z,58.10
2023-04-17T08:03:25.849Z,53.60
2023-04-17T08:05:53.986Z,51.17
2023-04-17T08:08:22.807Z,48.87
2023-04-17T08:10:50.856Z,50.40
2023-04-17T08:13:17.630Z,54.53
2023-04-17T08:15:45.848Z,52.87
2023-04-17T08:18:13.090Z,48.83
2023-04-17T08:20:40.200Z,47.83
2023-04-17T08:23:07.265Z,46.80
2023-04-17T08:25:34.319Z,49.27
2023-04-17T08:28:01.794Z,48.10
2023-04-17T08:30:28.810Z,49.70
2023-04-17T08:32:57.879Z,44.00
2023-04-17T08:35:26.849Z,44.30
2023-04-17T08:37:56.050Z,41.30
2023-04-17T08:40:25.221Z,42.20
2023-04-17T08:42:54.348Z,57.03
2023-04-17T08:45:24.430Z,42.70
2023-04-17T08:48:11.773Z,45.10
2023-04-17T08:51:13.211Z,42.57
2023-04-17T08:56:43.771Z,43.10
2023-04-17T08:59:11.109Z,37.90
2023-04-17T09:01:39.073Z,39.50
2023-04-17T09:04:06.620Z,38.27
2023-04-17T09:06:49.948Z,42.77
2023-04-17T09:09:16.579Z,44.60
2023-04-17T09:11:43.393Z,37.17
2023-04-17T09:14:29.634Z,36.30
2023-04-17T09:16:57.773Z,39.57
2023-04-17T09:19:24.411Z,34.80
2023-04-17T09:21:51.225Z,39.70
2023-04-17T09:24:36.311Z,37.93
2023-04-17T09:27:26.267Z,39.97
2023-04-17T09:30:04.074Z,40.77
2023-04-17T09:32:33.060Z,39.87
2023-04-17T09:35:01.941Z,35.37
2023-04-17T09:37:53.325Z,37.07
2023-04-17T09:40:22.054Z,36.93
2023-04-17T09:43:03.765Z,29.90
2023-04-17T09:45:42.929Z,39.17
2023-04-17T09:48:12.006Z,32.40
2023-04-17T09:50:39.997Z,34.50
2023-04-17T09:53:07.896Z,32.10
2023-04-17T09:55:36.887Z,34.57
2023-04-17T09:58:07.457Z,32.23
2023-04-17T10:00:36.487Z,29.10
2023-04-17T10:03:03.901Z,28.37
2023-04-17T10:05:32.262Z,31.00
2023-04-17T10:07:59.056Z,33.53
2023-04-17T10:10:31.020Z,28.00
2023-04-17T10:13:01.298Z,27.47
2023-04-17T10:15:29.298Z,31.50
2023-04-17T10:18:16.190Z,28.07
2023-04-17T10:20:44.799Z,30.37
2023-04-17T10:23:32.464Z,27.60
2023-04-17T10:26:28.048Z,28.57
2023-04-17T10:28:57.894Z,30.53
2023-04-17T10:32:03.524Z,26.70
2023-04-17T10:34:38.046Z,24.03
2023-04-17T10:37:05.058Z,25.30
2023-04-17T10:39:51.790Z,31.80
2023-04-17T10:42:23.736Z,30.07
2023-04-17T10:44:51.869Z,25.73
2023-04-17T10:47:22.666Z,25.07
2023-04-17T10:50:00.664Z,26.53
2023-04-17T10:52:34.535Z,28.03
2023-04-17T10:55:20.733Z,25.43
2023-04-17T10:57:56.687Z,22.40
2023-04-17T11:00:50.777Z,24.73
2023-04-17T11:03:18.449Z,28.30
2023-04-17T11:05:47.143Z,25.07
2023-04-17T11:08:14.879Z,23.77
2023-04-17T11:10:41.626Z,24.97
2023-04-17T11:13:08.352Z,21.83
2023-04-17T11:15:35.768Z,27.33
2023-04-17T11:18:03.671Z,18.50
2023-04-17T11:20:33.673Z,20.73
2023-04-17T11:23:04.539Z,23.53
2023-04-17T11:25:34.413Z,22.40
2023-04-17T11:28:05.495Z,24.27
2023-04-17T11:30:40.649Z,22.37
2023-04-17T11:33:08.594Z,19.60
2023-04-17T11:35:37.465Z,21.57
2023-04-17T11:38:22.126Z,19.33
2023-04-17T11:40:56.233Z,21.00
2023-04-17T11:43:24.065Z,23.10
2023-04-17T11:45:56.617Z,16.87
2023-04-17T11:48:28.964Z,23.03
2023-04-17T11:51:03.646Z,27.30
2023-04-17T11:53:31.196Z,19.87
2023-04-17T11:56:23.052Z,17.93
2023-04-17T11:58:52.760Z,22.90
2023-04-17T12:01:25.101Z,23.03
2023-04-17T12:03:53.738Z,25.13
2023-04-17T12:06:21.692Z,25.43
2023-04-17T12:08:53.819Z,25.90
2023-04-17T12:11:25.544Z,17.90
2023-04-17T12:13:53.715Z,20.80
2023-04-17T12:16:21.845Z,19.47
2023-04-17T12:18:48.605Z,18.60
2023-04-17T12:21:15.361Z,18.63
2023-04-17T12:23:42.532Z,21.53
2023-04-17T12:26:09.797Z,19.37
2023-04-17T12:28:36.844Z,15.90
2023-04-17T12:31:04.594Z,18.43
2023-04-17T12:33:32.771Z,16.00
2023-04-17T12:36:03.341Z,17.50
2023-04-17T12:38:30.993Z,18.73
2023-04-17T12:40:57.899Z,17.07
2023-04-17T12:43:24.915Z,12.97
2023-04-17T12:45:53.230Z,21.43
2023-04-17T12:48:20.330Z,23.10
2023-04-17T12:50:47.116Z,23.03
2023-04-17T12:53:14.469Z,21.90
2023-04-17T12:55:42.304Z,24.63
2023-04-17T12:58:11.079Z,17.67
2023-04-17T13:00:39.897Z,15.90
2023-04-17T13:03:06.876Z,22.70
2023-04-17T13:05:33.609Z,20.70
2023-04-17T13:08:00.475Z,21.70
2023-04-17T13:10:27.860Z,23.00
2023-04-17T13:12:54.637Z,19.17
2023-04-17T13:15:21.757Z,17.87
2023-04-17T13:17:48.555Z,18.90
2023-04-17T13:20:15.509Z,16.03
2023-04-17T13:22:42.230Z,15.53
2023-04-17T13:25:09.574Z,15.47
2023-04-17T13:27:37.499Z,21.00
2023-04-17T13:30:05.192Z,21.43
2023-04-17T13:32:32.151Z,17.33
2023-04-17T13:34:59.069Z,14.73
2023-04-17T13:37:26.008Z,14.33
2023-04-17T13:39:52.790Z,20.50
2023-04-17T13:42:20.332Z,14.40
2023-04-17T13:44:47.010Z,17.13
2023-04-17T13:47:14.013Z,15.93
2023-04-17T13:49:40.783Z,13.67
2023-04-17T13:52:07.849Z,21.70
2023-04-17T13:54:34.575Z,19.00
2023-04-17T13:57:01.611Z,16.10
2023-04-17T13:59:28.376Z,14.67
2023-04-17T14:01:55.218Z,12.93
2023-04-17T14:04:22.334Z,21.53
2023-04-17T14:06:51.329Z,18.57
2023-04-17T14:09:18.211Z,17.27
2023-04-17T14:11:44.923Z,14.73
2023-04-17T14:14:12.762Z,14.33
2023-04-17T14:16:43.551Z,15.40
2023-04-17T14:19:13.754Z,14.63
2023-04-17T14:21:41.541Z,17.43
2023-04-17T14:24:08.797Z,16.33
2023-04-17T14:26:37.330Z,18.33
2023-04-17T14:29:04.596Z,13.90
2023-04-17T14:31:31.862Z,13.50
2023-04-17T14:33:58.798Z,14.30
2023-04-17T14:36:26.185Z,13.57
2023-04-17T14:38:54.257Z,13.30
2023-04-17T14:41:21.416Z,16.03
2023-04-17T14:43:48.219Z,14.20
2023-04-17T14:46:15.270Z,12.00
2023-04-17T14:48:55.004Z,15.00
2023-04-17T14:51:23.589Z,13.80
2023-04-17T14:53:52.891Z,11.33
2023-04-17T14:56:21.433Z,16.53
2023-04-17T14:58:48.291Z,11.57
2023-04-17T15:03:47.423Z,11.20
2023-04-17T15:06:15.229Z,13.93
2023-04-17T15:08:43.415Z,19.10
2023-04-17T15:11:10.370Z,13.97
2023-04-17T15:13:37.548Z,13.90
2023-04-17T15:16:04.784Z,11.83
2023-04-17T15:18:31.978Z,18.17
2023-04-17T15:20:58.796Z,18.40
2023-04-17T15:23:26.411Z,11.50
2023-04-17T15:25:55.313Z,16.63
2023-04-17T15:28:22.040Z,11.93
2023-04-17T15:30:51.129Z,12.33
2023-04-17T15:33:17.779Z,13.40
2023-04-17T15:35:44.520Z,13.57
2023-04-17T15:38:12.083Z,14.33
2023-04-17T15:40:38.906Z,21.30
2023-04-17T15:43:05.571Z,17.13
2023-04-17T15:45:32.486Z,16.40
2023-04-17T15:48:01.123Z,14.67
2023-04-17T15:50:27.940Z,15.57
2023-04-17T15:52:54.736Z,21.13
2023-04-17T15:55:21.516Z,16.60
2023-04-17T15:57:48.684Z,16.80
2023-04-17T16:00:15.965Z,26.10
2023-04-17T16:02:42.722Z,15.10
2023-04-17T16:05:10.031Z,22.10
2023-04-17T16:07:36.674Z,15.50
2023-04-17T16:10:03.529Z,17.17
2023-04-17T16:12:30.245Z,19.37
2023-04-17T16:14:57.361Z,13.20
2023-04-17T16:17:24.043Z,12.57
2023-04-17T16:19:51.019Z,18.17
2023-04-17T16:22:19.300Z,18.13
2023-04-17T16:24:47.088Z,16.03
2023-04-17T16:27:13.779Z,17.07
2023-04-17T16:29:41.085Z,21.60
2023-04-17T16:32:07.821Z,21.90
2023-04-17T16:34:34.674Z,11.53
2023-04-17T16:37:03.861Z,14.10
2023-04-17T16:39:30.791Z,17.90
2023-04-17T16:41:57.719Z,21.23
2023-04-17T16:44:26.759Z,12.47
2023-04-17T16:49:24.820Z,17.47
2023-04-17T16:51:51.875Z,28.83
2023-04-17T16:54:20.459Z,27.57
2023-04-17T16:56:50.656Z,32.47
2023-04-17T16:59:17.337Z,18.47
2023-04-17T17:01:44.247Z,17.47
2023-04-17T17:04:10.918Z,15.40
2023-04-17T17:06:37.918Z,14.83
2023-04-17T17:09:04.648Z,15.57
2023-04-17T17:11:31.426Z,15.00
2023-04-17T17:13:58.141Z,14.30
2023-04-17T17:16:25.457Z,17.27
2023-04-17T17:18:52.188Z,17.77
2023-04-17T17:21:19.599Z,20.43
2023-04-17T17:23:46.301Z,14.60
2023-04-17T17:26:13.182Z,17.00
2023-04-17T17:28:39.908Z,18.07
2023-04-17T17:31:07.961Z,18.83
2023-04-17T17:33:37.054Z,16.17
2023-04-17T17:36:03.934Z,17.20
2023-04-17T17:38:32.884Z,35.67
2023-04-17T17:40:59.651Z,18.00
2023-04-17T17:43:28.450Z,18.30
2023-04-17T17:45:55.204Z,19.80
2023-04-17T17:48:22.060Z,14.83
2023-04-17T17:50:52.710Z,20.00
2023-04-17T17:53:21.421Z,20.97
2023-04-17T17:55:53.908Z,18.33
2023-04-17T17:58:21.676Z,19.53
2023-04-17T18:00:51.653Z,17.70
2023-04-17T18:03:19.184Z,23.13
2023-04-17T18:05:46.781Z,22.13
2023-04-17T18:08:14.212Z,21.93
2023-04-17T18:10:40.939Z,20.07
2023-04-17T18:13:07.793Z,17.80
2023-04-17T18:15:35.627Z,18.30
2023-04-17T18:18:02.370Z,16.00
2023-04-17T18:20:29.567Z,25.20
2023-04-17T18:22:56.571Z,22.27
2023-04-17T18:25:23.420Z,21.20
2023-04-17T18:27:50.107Z,18.27
2023-04-17T18:30:16.886Z,49.80
2023-04-17T18:32:43.641Z,15.97
2023-04-17T18:35:10.484Z,25.60
2023-04-17T18:37:37.940Z,20.17
2023-04-17T18:40:07.226Z,21.27
2023-04-17T18:42:34.289Z,26.73
2023-04-17T18:45:01.052Z,19.60
2023-04-17T18:47:27.949Z,21.87
2023-04-17T18:49:54.709Z,21.10
2023-04-17T18:52:21.589Z,27.77
2023-04-17T18:54:48.608Z,26.40
2023-04-17T18:57:15.494Z,23.63
2023-04-17T18:59:43.373Z,24.97
2023-04-17T19:02:10.563Z,19.20
2023-04-17T19:04:37.482Z,21.50
2023-04-17T19:07:04.867Z,28.77
2023-04-17T19:09:31.598Z,23.33
2023-04-17T19:11:58.481Z,28.60
2023-04-17T19:14:25.277Z,23.70
2023-04-17T19:16:52.262Z,24.13
2023-04-17T19:19:19.007Z,27.47
2023-04-17T19:21:46.016Z,23.03
2023-04-17T19:24:12.754Z,22.80
2023-04-17T19:26:39.734Z,24.20
2023-04-17T19:29:06.487Z,22.97
2023-04-17T19:31:34.028Z,20.13
2023-04-17T19:34:01.740Z,23.70
2023-04-17T19:36:28.915Z,20.37
2023-04-17T19:38:59.118Z,25.83
2023-04-17T19:41:26.317Z,32.23
2023-04-17T19:43:54.820Z,26.83
2023-04-17T19:46:23.276Z,31.60
2023-04-17T19:48:50.812Z,24.63
2023-04-17T19:51:18.188Z,23.87
2023-04-17T19:53:46.692Z,29.70
2023-04-17T19:56:13.683Z,19.53
2023-04-17T19:58:41.824Z,20.73
2023-04-17T20:01:08.629Z,19.87
2023-04-17T20:03:38.313Z,18.13
2023-04-17T20:06:05.593Z,20.57
2023-04-17T20:08:32.297Z,19.20
2023-04-17T20:10:59.718Z,23.90
2023-04-17T20:13:27.836Z,21.73
2023-04-17T20:15:54.880Z,20.10
2023-04-17T20:18:21.684Z,22.07
2023-04-17T20:20:48.825Z,20.23
2023-04-17T20:23:15.767Z,21.03
2023-04-17T20:25:43.331Z,22.17
2023-04-17T20:28:10.080Z,18.70
2023-04-17T20:30:36.761Z,19.00
2023-04-17T20:33:03.639Z,22.50
2023-04-17T20:35:30.712Z,24.20
2023-04-17T20:37:58.633Z,26.70
2023-04-17T20:40:25.464Z,20.23
2023-04-17T20:42:52.202Z,24.37
2023-04-17T20:45:19.273Z,20.40
2023-04-17T20:47:56.644Z,21.20
2023-04-17T20:50:25.347Z,24.10
2023-04-17T20:52:52.592Z,23.37
2023-04-17T20:55:20.140Z,24.53
2023-04-17T20:57:47.735Z,23.73
2023-04-17T21:00:14.890Z,22.87
2023-04-17T21:02:42.128Z,21.90
2023-04-17T21:05:09.548Z,22.70
2023-04-17T21:07:37.424Z,22.00
2023-04-17T21:10:04.493Z,24.53
2023-04-17T21:12:32.963Z,23.73
2023-04-17T21:15:00.624Z,19.60
2023-04-17T21:17:27.426Z,19.97
2023-04-17T21:19:56.112Z,23.20
2023-04-17T21:22:22.933Z,21.50
2023-04-17T21:24:49.749Z,20.37
2023-04-17T21:27:16.446Z,29.97
2023-04-17T21:29:43.129Z,19.10
2023-04-17T21:32:09.856Z,28.27
2023-04-17T21:34:36.589Z,18.90
2023-04-17T21:37:04.979Z,22.20
2023-04-17T21:39:33.384Z,21.27
2023-04-17T21:42:01.442Z,23.67
2023-04-17T21:44:28.524Z,21.43
2023-04-17T21:46:55.996Z,19.90
2023-04-17T21:49:22.767Z,22.83
2023-04-17T21:51:49.542Z,21.27
2023-04-17T21:54:16.662Z,24.03
2023-04-17T21:56:43.338Z,23.73
2023-04-17T21:59:10.178Z,23.70
2023-04-17T22:01:37.123Z,25.20
2023-04-17T22:04:04.177Z,30.93
2023-04-17T22:06:34.324Z,24.60
2023-04-17T22:09:01.848Z,28.93
2023-04-17T22:11:28.544Z,33.77
2023-04-17T22:13:55.220Z,23.20
2023-04-17T22:16:21.896Z,21.83
2023-04-17T22:18:51.054Z,25.33
2023-04-17T22:21:18.233Z,20.17
2023-04-17T22:23:45.052Z,16.80
2023-04-17T22:26:11.802Z,19.40
2023-04-17T22:28:38.646Z,17.77
2023-04-17T22:31:05.732Z,19.70
2023-04-17T22:33:32.844Z,21.33
2023-04-17T22:35:59.926Z,22.50
2023-04-17T22:38:26.591Z,18.07
2023-04-17T22:40:54.953Z,21.50
2023-04-17T22:43:21.564Z,16.27
2023-04-17T22:45:48.676Z,18.47
2023-04-17T22:48:15.378Z,19.27
2023-04-17T22:50:42.741Z,19.37
2023-04-17T22:53:09.675Z,16.10
2023-04-17T22:55:36.516Z,16.07
2023-04-17T22:58:03.708Z,13.90
2023-04-17T23:00:31.776Z,22.57
2023-04-17T23:02:58.592Z,21.80
2023-04-17T23:05:25.471Z,17.27
2023-04-17T23:07:52.362Z,14.53
2023-04-17T23:10:20.187Z,17.30
2023-04-17T23:12:46.896Z,20.53
2023-04-17T23:15:14.221Z,18.30
2023-04-17T23:17:40.994Z,17.43
2023-04-17T23:20:08.244Z,16.60
2023-04-17T23:22:35.053Z,19.73
2023-04-17T23:25:01.792Z,18.33
2023-04-17T23:27:28.644Z,15.47
2023-04-17T23:29:55.261Z,16.97
2023-04-17T23:32:22.149Z,14.80
2023-04-17T23:34:48.837Z,22.43
2023-04-17T23:37:16.299Z,15.93
2023-04-17T23:39:43.035Z,16.80
2023-04-17T23:42:10.106Z,15.97
2023-04-17T23:44:36.756Z,22.00
2023-04-17T23:47:04.337Z,18.63
2023-04-17T23:49:31.155Z,21.57
2023-04-17T23:51:58.093Z,17.43
2023-04-17T23:54:24.717Z,17.93
2023-04-17T23:56:51.480Z,20.60
2023-04-17T23:59:18.188Z,24.07
